sensor_id;sensor_type;location;lat;lon;timestamp;P1;durP1;ratioP1;P2;durP2;ratioP2
11964;SDS011;6042;41.326;19.826;2022-11-18T00:01:19;7.57;;;2.93;;
11964;SDS011;6042;41.326;19.826;2022-11-18T00:03:49;19.63;;;4.00;;
11964;SDS011;6042;41.326;19.826;2022-11-18T00:06:19;8.10;;;3.57;;
11964;SDS011;6042;41.326;19.826;2022-11-18T00:08:48;11.63;;;3.67;;
11964;SDS011;6042;41.326;19.826;2022-11-18T00:11:18;7.07;;;3.33;;
11964;SDS011;6042;41.326;19.826;2022-11-18T00:14:03;5.20;;;3.27;;
11964;SDS011;6042;41.326;19.826;2022-11-18T00:16:49;4.30;;;3.27;;
11964;SDS011;6042;41.326;19.826;2022-11-18T00:19:20;8.27;;;2.87;;
11964;SDS011;6042;41.326;19.826;2022-11-18T00:21:50;5.30;;;3.33;;
11964;SDS011;6042;41.326;19.826;2022-11-18T00:24:18;6.60;;;3.10;;
11964;SDS011;6042;41.326;19.826;2022-11-18T00:26:47;6.50;;;3.40;;
11964;SDS011;6042;41.326;19.826;2022-11-18T00:29:17;5.30;;;3.20;;
11964;SDS011;6042;41.326;19.826;2022-11-18T00:31:47;7.40;;;3.30;;
11964;SDS011;6042;41.326;19.826;2022-11-18T00:34:16;4.63;;;3.13;;
11964;SDS011;6042;41.326;19.826;2022-11-18T00:36:45;5.87;;;3.03;;
11964;SDS011;6042;41.326;19.826;2022-11-18T00:39:15;5.60;;;3.30;;
11964;SDS011;6042;41.326;19.826;2022-11-18T00:41:46;5.80;;;3.00;;
11964;SDS011;6042;41.326;19.826;2022-11-18T00:44:34;4.70;;;3.27;;
11964;SDS011;6042;41.326;19.826;2022-11-18T00:47:02;5.13;;;2.47;;
11964;SDS011;6042;41.326;19.826;2022-11-18T00:49:31;4.67;;;2.93;;
11964;SDS011;6042;41.326;19.826;2022-11-18T00:52:00;10.87;;;2.87;;
11964;SDS011;6042;41.326;19.826;2022-11-18T00:54:29;5.63;;;2.70;;
11964;SDS011;6042;41.326;19.826;2022-11-18T00:56:58;7.00;;;3.03;;
11964;SDS011;6042;41.326;19.826;2022-11-18T00:59:27;6.17;;;2.50;;
11964;SDS011;6042;41.326;19.826;2022-11-18T01:01:57;7.07;;;2.57;;
11964;SDS011;6042;41.326;19.826;2022-11-18T01:04:26;5.47;;;2.00;;
11964;SDS011;6042;41.326;19.826;2022-11-18T01:06:55;10.57;;;3.23;;
11964;SDS011;6042;41.326;19.826;2022-11-18T01:09:23;7.40;;;2.60;;
11964;SDS011;6042;41.326;19.826;2022-11-18T01:11:52;8.13;;;2.93;;
11964;SDS011;6042;41.326;19.826;2022-11-18T01:14:40;5.77;;;2.67;;
11964;SDS011;6042;41.326;19.826;2022-11-18T01:17:10;7.00;;;2.87;;
11964;SDS011;6042;41.326;19.826;2022-11-18T01:19:39;7.20;;;3.17;;
11964;SDS011;6042;41.326;19.826;2022-11-18T01:22:09;8.67;;;3.20;;
11964;SDS011;6042;41.326;19.826;2022-11-18T01:24:37;5.83;;;2.80;;
11964;SDS011;6042;41.326;19.826;2022-11-18T01:27:06;8.17;;;2.90;;
11964;SDS011;6042;41.326;19.826;2022-11-18T01:29:35;5.97;;;2.23;;
11964;SDS011;6042;41.326;19.826;2022-11-18T01:32:03;5.37;;;2.87;;
11964;SDS011;6042;41.326;19.826;2022-11-18T01:34:52;3.43;;;2.20;;
11964;SDS011;6042;41.326;19.826;2022-11-18T01:37:21;5.43;;;2.67;;
11964;SDS011;6042;41.326;19.826;2022-11-18T01:39:49;5.47;;;2.60;;
11964;SDS011;6042;41.326;19.826;2022-11-18T01:42:18;6.03;;;2.77;;
11964;SDS011;6042;41.326;19.826;2022-11-18T01:44:52;6.17;;;3.13;;
11964;SDS011;6042;41.326;19.826;2022-11-18T01:47:29;5.50;;;2.63;;
11964;SDS011;6042;41.326;19.826;2022-11-18T01:50:04;6.37;;;2.40;;
11964;SDS011;6042;41.326;19.826;2022-11-18T01:52:33;2.40;;;2.20;;
11964;SDS011;6042;41.326;19.826;2022-11-18T01:55:05;8.03;;;2.73;;
11964;SDS011;6042;41.326;19.826;2022-11-18T01:57:39;6.60;;;2.47;;
11964;SDS011;6042;41.326;19.826;2022-11-18T02:00:09;7.40;;;3.00;;
11964;SDS011;6042;41.326;19.826;2022-11-18T02:02:40;9.03;;;2.90;;
11964;SDS011;6042;41.326;19.826;2022-11-18T02:05:11;3.23;;;2.10;;
11964;SDS011;6042;41.326;19.826;2022-11-18T02:07:41;4.67;;;2.37;;
11964;SDS011;6042;41.326;19.826;2022-11-18T02:10:16;5.20;;;2.30;;
11964;SDS011;6042;41.326;19.826;2022-11-18T02:12:47;4.67;;;2.27;;
11964;SDS011;6042;41.326;19.826;2022-11-18T02:15:17;4.27;;;2.50;;
11964;SDS011;6042;41.326;19.826;2022-11-18T02:18:03;4.50;;;2.53;;
11964;SDS011;6042;41.326;19.826;2022-11-18T02:20:42;3.93;;;2.07;;
11964;SDS011;6042;41.326;19.826;2022-11-18T02:26:25;3.87;;;2.03;;
11964;SDS011;6042;41.326;19.826;2022-11-18T02:29:24;11.27;;;2.50;;
11964;SDS011;6042;41.326;19.826;2022-11-18T02:31:58;4.00;;;2.00;;
11964;SDS011;6042;41.326;19.826;2022-11-18T02:34:32;4.00;;;2.17;;
11964;SDS011;6042;41.326;19.826;2022-11-18T02:37:07;5.00;;;2.60;;
11964;SDS011;6042;41.326;19.826;2022-11-18T02:39:46;5.43;;;2.20;;
11964;SDS011;6042;41.326;19.826;2022-11-18T02:42:18;4.53;;;1.90;;
11964;SDS011;6042;41.326;19.826;2022-11-18T02:44:51;8.50;;;1.80;;
11964;SDS011;6042;41.326;19.826;2022-11-18T02:47:24;5.37;;;2.20;;
11964;SDS011;6042;41.326;19.826;2022-11-18T02:49:56;4.47;;;2.27;;
11964;SDS011;6042;41.326;19.826;2022-11-18T02:52:35;5.03;;;2.10;;
11964;SDS011;6042;41.326;19.826;2022-11-18T02:55:06;3.67;;;2.20;;
11964;SDS011;6042;41.326;19.826;2022-11-18T02:57:37;6.90;;;2.20;;
11964;SDS011;6042;41.326;19.826;2022-11-18T03:00:13;4.20;;;1.93;;
11964;SDS011;6042;41.326;19.826;2022-11-18T03:02:44;3.27;;;2.00;;
11964;SDS011;6042;41.326;19.826;2022-11-18T03:05:15;3.70;;;1.70;;
11964;SDS011;6042;41.326;19.826;2022-11-18T03:07:52;5.93;;;2.10;;
11964;SDS011;6042;41.326;19.826;2022-11-18T03:10:24;3.83;;;1.83;;
11964;SDS011;6042;41.326;19.826;2022-11-18T03:13:01;6.93;;;2.00;;
11964;SDS011;6042;41.326;19.826;2022-11-18T03:15:39;3.97;;;1.90;;
11964;SDS011;6042;41.326;19.826;2022-11-18T03:18:15;6.27;;;2.03;;
11964;SDS011;6042;41.326;19.826;2022-11-18T03:20:51;7.67;;;2.13;;
11964;SDS011;6042;41.326;19.826;2022-11-18T03:23:26;3.80;;;1.80;;
11964;SDS011;6042;41.326;19.826;2022-11-18T03:26:04;3.73;;;1.97;;
11964;SDS011;6042;41.326;19.826;2022-11-18T03:28:37;4.17;;;2.13;;
11964;SDS011;6042;41.326;19.826;2022-11-18T03:31:12;5.93;;;2.10;;
11964;SDS011;6042;41.326;19.826;2022-11-18T03:33:47;2.00;;;1.90;;
11964;SDS011;6042;41.326;19.826;2022-11-18T03:36:18;6.77;;;2.13;;
11964;SDS011;6042;41.326;19.826;2022-11-18T03:38:50;3.23;;;1.80;;
11964;SDS011;6042;41.326;19.826;2022-11-18T03:41:21;6.90;;;1.70;;
11964;SDS011;6042;41.326;19.826;2022-11-18T03:43:54;5.00;;;1.93;;
11964;SDS011;6042;41.326;19.826;2022-11-18T03:46:30;3.33;;;1.90;;
11964;SDS011;6042;41.326;19.826;2022-11-18T03:49:06;4.00;;;2.13;;
11964;SDS011;6042;41.326;19.826;2022-11-18T03:51:37;4.87;;;2.03;;
11964;SDS011;6042;41.326;19.826;2022-11-18T03:54:10;4.93;;;1.90;;
11964;SDS011;6042;41.326;19.826;2022-11-18T03:56:43;4.37;;;1.70;;
11964;SDS011;6042;41.326;19.826;2022-11-18T03:59:20;4.43;;;1.97;;
11964;SDS011;6042;41.326;19.826;2022-11-18T04:01:53;4.57;;;1.87;;
11964;SDS011;6042;41.326;19.826;2022-11-18T04:04:25;4.00;;;2.10;;
11964;SDS011;6042;41.326;19.826;2022-11-18T04:06:57;2.07;;;1.80;;
11964;SDS011;6042;41.326;19.826;2022-11-18T04:09:32;4.53;;;1.83;;
11964;SDS011;6042;41.326;19.826;2022-11-18T04:12:09;5.83;;;2.00;;
11964;SDS011;6042;41.326;19.826;2022-11-18T04:14:41;3.43;;;2.00;;
11964;SDS011;6042;41.326;19.826;2022-11-18T04:17:12;3.07;;;1.80;;
11964;SDS011;6042;41.326;19.826;2022-11-18T04:19:44;3.17;;;1.90;;
11964;SDS011;6042;41.326;19.826;2022-11-18T04:22:12;2.60;;;1.77;;
11964;SDS011;6042;41.326;19.826;2022-11-18T04:24:42;5.37;;;1.80;;
11964;SDS011;6042;41.326;19.826;2022-11-18T04:27:10;4.23;;;1.83;;
11964;SDS011;6042;41.326;19.826;2022-11-18T04:29:40;5.33;;;2.00;;
11964;SDS011;6042;41.326;19.826;2022-11-18T04:32:09;6.10;;;1.90;;
11964;SDS011;6042;41.326;19.826;2022-11-18T04:34:39;3.33;;;1.53;;
11964;SDS011;6042;41.326;19.826;2022-11-18T04:37:07;4.93;;;2.23;;
11964;SDS011;6042;41.326;19.826;2022-11-18T04:39:36;2.90;;;2.10;;
11964;SDS011;6042;41.326;19.826;2022-11-18T04:42:04;3.13;;;1.80;;
11964;SDS011;6042;41.326;19.826;2022-11-18T04:44:33;3.97;;;1.93;;
11964;SDS011;6042;41.326;19.826;2022-11-18T04:47:03;5.40;;;2.20;;
11964;SDS011;6042;41.326;19.826;2022-11-18T04:49:34;2.87;;;1.70;;
11964;SDS011;6042;41.326;19.826;2022-11-18T04:52:04;4.50;;;2.10;;
11964;SDS011;6042;41.326;19.826;2022-11-18T04:54:33;2.90;;;1.90;;
11964;SDS011;6042;41.326;19.826;2022-11-18T04:57:02;5.73;;;2.13;;
11964;SDS011;6042;41.326;19.826;2022-11-18T04:59:31;3.13;;;1.83;;
11964;SDS011;6042;41.326;19.826;2022-11-18T05:02:00;5.50;;;2.10;;
11964;SDS011;6042;41.326;19.826;2022-11-18T05:04:30;4.37;;;1.93;;
11964;SDS011;6042;41.326;19.826;2022-11-18T05:06:59;3.37;;;1.83;;
11964;SDS011;6042;41.326;19.826;2022-11-18T05:09:32;3.73;;;1.90;;
11964;SDS011;6042;41.326;19.826;2022-11-18T05:12:01;4.17;;;1.87;;
11964;SDS011;6042;41.326;19.826;2022-11-18T05:14:48;3.40;;;1.90;;
11964;SDS011;6042;41.326;19.826;2022-11-18T05:17:17;5.53;;;1.80;;
11964;SDS011;6042;41.326;19.826;2022-11-18T05:19:46;3.07;;;1.50;;
11964;SDS011;6042;41.326;19.826;2022-11-18T05:22:14;5.37;;;2.00;;
11964;SDS011;6042;41.326;19.826;2022-11-18T05:24:45;2.37;;;2.10;;
11964;SDS011;6042;41.326;19.826;2022-11-18T05:27:14;4.37;;;1.97;;
11964;SDS011;6042;41.326;19.826;2022-11-18T05:29:43;5.63;;;2.40;;
11964;SDS011;6042;41.326;19.826;2022-11-18T05:32:12;7.03;;;2.53;;
11964;SDS011;6042;41.326;19.826;2022-11-18T05:34:40;5.40;;;2.40;;
11964;SDS011;6042;41.326;19.826;2022-11-18T05:37:09;4.70;;;2.00;;
11964;SDS011;6042;41.326;19.826;2022-11-18T05:39:38;11.03;;;2.57;;
11964;SDS011;6042;41.326;19.826;2022-11-18T05:42:08;2.73;;;2.23;;
11964;SDS011;6042;41.326;19.826;2022-11-18T05:44:55;5.63;;;2.40;;
11964;SDS011;6042;41.326;19.826;2022-11-18T05:47:24;4.67;;;3.00;;
11964;SDS011;6042;41.326;19.826;2022-11-18T05:49:53;5.37;;;2.57;;
11964;SDS011;6042;41.326;19.826;2022-11-18T05:52:22;7.07;;;2.50;;
11964;SDS011;6042;41.326;19.826;2022-11-18T05:54:50;4.63;;;2.43;;
11964;SDS011;6042;41.326;19.826;2022-11-18T05:57:20;4.13;;;2.10;;
11964;SDS011;6042;41.326;19.826;2022-11-18T05:59:49;5.60;;;2.60;;
11964;SDS011;6042;41.326;19.826;2022-11-18T06:02:18;2.90;;;1.80;;
11964;SDS011;6042;41.326;19.826;2022-11-18T06:04:51;3.40;;;2.27;;
11964;SDS011;6042;41.326;19.826;2022-11-18T06:07:24;4.73;;;2.53;;
11964;SDS011;6042;41.326;19.826;2022-11-18T06:09:57;4.97;;;2.10;;
11964;SDS011;6042;41.326;19.826;2022-11-18T06:12:34;2.47;;;2.07;;
11964;SDS011;6042;41.326;19.826;2022-11-18T06:15:07;3.20;;;2.03;;
11964;SDS011;6042;41.326;19.826;2022-11-18T06:17:40;5.67;;;2.40;;
11964;SDS011;6042;41.326;19.826;2022-11-18T06:20:16;2.30;;;2.10;;
11964;SDS011;6042;41.326;19.826;2022-11-18T06:22:45;4.17;;;2.07;;
11964;SDS011;6042;41.326;19.826;2022-11-18T06:25:14;4.07;;;2.30;;
11964;SDS011;6042;41.326;19.826;2022-11-18T06:27:45;7.57;;;2.10;;
11964;SDS011;6042;41.326;19.826;2022-11-18T06:30:14;3.27;;;1.93;;
11964;SDS011;6042;41.326;19.826;2022-11-18T06:32:43;6.10;;;2.60;;
11964;SDS011;6042;41.326;19.826;2022-11-18T06:35:12;5.17;;;2.37;;
11964;SDS011;6042;41.326;19.826;2022-11-18T06:37:40;3.53;;;2.23;;
11964;SDS011;6042;41.326;19.826;2022-11-18T06:40:09;3.30;;;2.00;;
11964;SDS011;6042;41.326;19.826;2022-11-18T06:42:39;4.43;;;2.40;;
11964;SDS011;6042;41.326;19.826;2022-11-18T06:45:26;7.13;;;2.17;;
11964;SDS011;6042;41.326;19.826;2022-11-18T06:47:55;7.87;;;2.43;;
11964;SDS011;6042;41.326;19.826;2022-11-18T06:50:23;3.73;;;2.33;;
11964;SDS011;6042;41.326;19.826;2022-11-18T06:52:52;5.13;;;2.33;;
11964;SDS011;6042;41.326;19.826;2022-11-18T06:55:20;6.87;;;2.73;;
11964;SDS011;6042;41.326;19.826;2022-11-18T06:57:49;5.97;;;3.37;;
11964;SDS011;6042;41.326;19.826;2022-11-18T07:00:18;6.17;;;2.00;;
11964;SDS011;6042;41.326;19.826;2022-11-18T07:02:48;3.67;;;2.07;;
11964;SDS011;6042;41.326;19.826;2022-11-18T07:05:17;3.40;;;2.37;;
11964;SDS011;6042;41.326;19.826;2022-11-18T07:07:46;5.17;;;2.40;;
11964;SDS011;6042;41.326;19.826;2022-11-18T07:10:14;3.33;;;1.97;;
11964;SDS011;6042;41.326;19.826;2022-11-18T07:12:43;6.20;;;1.90;;
11964;SDS011;6042;41.326;19.826;2022-11-18T07:15:12;6.40;;;1.80;;
11964;SDS011;6042;41.326;19.826;2022-11-18T07:17:44;3.23;;;2.17;;
11964;SDS011;6042;41.326;19.826;2022-11-18T07:20:15;4.33;;;1.83;;
11964;SDS011;6042;41.326;19.826;2022-11-18T07:22:45;3.77;;;2.13;;
11964;SDS011;6042;41.326;19.826;2022-11-18T07:25:14;3.97;;;1.60;;
11964;SDS011;6042;41.326;19.826;2022-11-18T07:27:43;4.87;;;2.47;;
11964;SDS011;6042;41.326;19.826;2022-11-18T07:30:12;3.17;;;1.93;;
11964;SDS011;6042;41.326;19.826;2022-11-18T07:32:41;5.77;;;1.50;;
11964;SDS011;6042;41.326;19.826;2022-11-18T07:35:11;4.50;;;1.57;;
11964;SDS011;6042;41.326;19.826;2022-11-18T07:37:39;4.87;;;1.93;;
11964;SDS011;6042;41.326;19.826;2022-11-18T07:40:08;6.47;;;1.47;;
11964;SDS011;6042;41.326;19.826;2022-11-18T07:42:37;6.00;;;1.90;;
11964;SDS011;6042;41.326;19.826;2022-11-18T07:45:21;2.80;;;1.43;;
11964;SDS011;6042;41.326;19.826;2022-11-18T07:47:50;6.47;;;2.27;;
11964;SDS011;6042;41.326;19.826;2022-11-18T07:50:20;5.90;;;1.80;;
11964;SDS011;6042;41.326;19.826;2022-11-18T07:52:48;4.90;;;1.80;;
11964;SDS011;6042;41.326;19.826;2022-11-18T07:55:17;4.33;;;1.83;;
11964;SDS011;6042;41.326;19.826;2022-11-18T07:57:46;5.77;;;1.73;;
11964;SDS011;6042;41.326;19.826;2022-11-18T08:00:14;4.13;;;1.70;;
11964;SDS011;6042;41.326;19.826;2022-11-18T08:02:44;4.70;;;1.50;;
11964;SDS011;6042;41.326;19.826;2022-11-18T08:05:17;4.10;;;1.50;;
11964;SDS011;6042;41.326;19.826;2022-11-18T08:07:47;3.90;;;1.83;;
11964;SDS011;6042;41.326;19.826;2022-11-18T08:10:16;6.40;;;1.50;;
11964;SDS011;6042;41.326;19.826;2022-11-18T08:12:44;3.17;;;1.30;;
11964;SDS011;6042;41.326;19.826;2022-11-18T08:15:13;2.80;;;1.40;;
11964;SDS011;6042;41.326;19.826;2022-11-18T08:17:42;4.37;;;1.20;;
11964;SDS011;6042;41.326;19.826;2022-11-18T08:20:10;3.80;;;1.20;;
11964;SDS011;6042;41.326;19.826;2022-11-18T08:22:39;5.27;;;1.30;;
11964;SDS011;6042;41.326;19.826;2022-11-18T08:25:09;5.23;;;1.37;;
11964;SDS011;6042;41.326;19.826;2022-11-18T08:27:38;6.13;;;1.43;;
11964;SDS011;6042;41.326;19.826;2022-11-18T08:30:07;2.43;;;1.30;;
11964;SDS011;6042;41.326;19.826;2022-11-18T08:32:37;5.07;;;1.27;;
11964;SDS011;6042;41.326;19.826;2022-11-18T08:35:06;2.87;;;1.13;;
11964;SDS011;6042;41.326;19.826;2022-11-18T08:37:37;7.77;;;1.43;;
11964;SDS011;6042;41.326;19.826;2022-11-18T08:40:06;4.80;;;1.20;;
11964;SDS011;6042;41.326;19.826;2022-11-18T08:42:36;2.47;;;1.10;;
11964;SDS011;6042;41.326;19.826;2022-11-18T08:45:08;6.30;;;1.50;;
11964;SDS011;6042;41.326;19.826;2022-11-18T08:47:37;4.03;;;1.33;;
11964;SDS011;6042;41.326;19.826;2022-11-18T08:50:07;6.70;;;1.60;;
11964;SDS011;6042;41.326;19.826;2022-11-18T08:52:39;4.87;;;1.80;;
11964;SDS011;6042;41.326;19.826;2022-11-18T08:55:08;4.87;;;1.70;;
11964;SDS011;6042;41.326;19.826;2022-11-18T08:57:38;5.53;;;1.60;;
11964;SDS011;6042;41.326;19.826;2022-11-18T09:00:07;3.53;;;1.33;;
11964;SDS011;6042;41.326;19.826;2022-11-18T09:02:36;6.33;;;5.10;;
11964;SDS011;6042;41.326;19.826;2022-11-18T09:05:05;3.40;;;1.60;;
11964;SDS011;6042;41.326;19.826;2022-11-18T09:07:34;4.70;;;1.40;;
11964;SDS011;6042;41.326;19.826;2022-11-18T09:10:02;3.07;;;1.20;;
11964;SDS011;6042;41.326;19.826;2022-11-18T09:12:31;2.43;;;1.20;;
11964;SDS011;6042;41.326;19.826;2022-11-18T09:15:01;3.17;;;1.80;;
11964;SDS011;6042;41.326;19.826;2022-11-18T09:17:39;4.20;;;1.30;;
11964;SDS011;6042;41.326;19.826;2022-11-18T09:20:08;8.10;;;1.77;;
11964;SDS011;6042;41.326;19.826;2022-11-18T09:22:38;3.90;;;1.40;;
11964;SDS011;6042;41.326;19.826;2022-11-18T09:25:07;6.00;;;1.60;;
11964;SDS011;6042;41.326;19.826;2022-11-18T09:27:36;8.50;;;1.40;;
11964;SDS011;6042;41.326;19.826;2022-11-18T09:30:06;4.87;;;1.40;;
11964;SDS011;6042;41.326;19.826;2022-11-18T09:32:36;20.47;;;3.53;;
11964;SDS011;6042;41.326;19.826;2022-11-18T09:35:04;3.73;;;1.20;;
11964;SDS011;6042;41.326;19.826;2022-11-18T09:37:33;4.80;;;1.50;;
11964;SDS011;6042;41.326;19.826;2022-11-18T09:40:02;1.87;;;1.40;;
11964;SDS011;6042;41.326;19.826;2022-11-18T09:42:35;2.33;;;1.30;;
11964;SDS011;6042;41.326;19.826;2022-11-18T09:45:16;7.90;;;1.43;;
11964;SDS011;6042;41.326;19.826;2022-11-18T09:47:51;1.70;;;1.10;;
11964;SDS011;6042;41.326;19.826;2022-11-18T09:50:24;4.20;;;1.30;;
11964;SDS011;6042;41.326;19.826;2022-11-18T09:53:16;3.60;;;1.23;;
11964;SDS011;6042;41.326;19.826;2022-11-18T09:55:47;8.03;;;1.47;;
11964;SDS011;6042;41.326;19.826;2022-11-18T09:58:17;7.97;;;1.43;;
11964;SDS011;6042;41.326;19.826;2022-11-18T10:00:50;6.27;;;1.60;;
11964;SDS011;6042;41.326;19.826;2022-11-18T10:03:21;6.00;;;1.90;;
11964;SDS011;6042;41.326;19.826;2022-11-18T10:05:55;10.70;;;3.77;;
11964;SDS011;6042;41.326;19.826;2022-11-18T10:08:32;8.33;;;2.30;;
11964;SDS011;6042;41.326;19.826;2022-11-18T10:11:09;8.63;;;2.30;;
11964;SDS011;6042;41.326;19.826;2022-11-18T10:13:44;7.20;;;1.90;;
11964;SDS011;6042;41.326;19.826;2022-11-18T10:16:27;7.07;;;1.57;;
11964;SDS011;6042;41.326;19.826;2022-11-18T10:19:04;3.70;;;1.57;;
11964;SDS011;6042;41.326;19.826;2022-11-18T10:21:48;6.87;;;1.90;;
11964;SDS011;6042;41.326;19.826;2022-11-18T10:24:23;6.50;;;2.13;;
11964;SDS011;6042;41.326;19.826;2022-11-18T10:26:53;8.90;;;3.63;;
11964;SDS011;6042;41.326;19.826;2022-11-18T10:29:23;4.63;;;1.57;;
11964;SDS011;6042;41.326;19.826;2022-11-18T10:31:55;6.50;;;2.43;;
11964;SDS011;6042;41.326;19.826;2022-11-18T10:34:30;4.17;;;1.90;;
11964;SDS011;6042;41.326;19.826;2022-11-18T10:36:59;5.10;;;2.50;;
11964;SDS011;6042;41.326;19.826;2022-11-18T10:39:29;14.00;;;2.80;;
11964;SDS011;6042;41.326;19.826;2022-11-18T10:41:59;6.77;;;2.00;;
11964;SDS011;6042;41.326;19.826;2022-11-18T10:44:34;17.47;;;2.90;;
11964;SDS011;6042;41.326;19.826;2022-11-18T10:47:20;11.67;;;2.60;;
11964;SDS011;6042;41.326;19.826;2022-11-18T10:49:55;3.90;;;1.60;;
11964;SDS011;6042;41.326;19.826;2022-11-18T10:52:26;11.60;;;2.80;;
11964;SDS011;6042;41.326;19.826;2022-11-18T10:55:08;4.03;;;2.20;;
11964;SDS011;6042;41.326;19.826;2022-11-18T10:57:53;13.27;;;2.63;;
11964;SDS011;6042;41.326;19.826;2022-11-18T11:00:38;4.80;;;1.70;;
11964;SDS011;6042;41.326;19.826;2022-11-18T11:03:24;5.20;;;2.63;;
11964;SDS011;6042;41.326;19.826;2022-11-18T11:06:12;12.37;;;2.13;;
11964;SDS011;6042;41.326;19.826;2022-11-18T11:09:08;6.77;;;1.80;;
11964;SDS011;6042;41.326;19.826;2022-11-18T11:11:59;4.03;;;1.40;;
11964;SDS011;6042;41.326;19.826;2022-11-18T11:14:31;6.27;;;2.10;;
11964;SDS011;6042;41.326;19.826;2022-11-18T11:17:08;6.57;;;2.10;;
11964;SDS011;6042;41.326;19.826;2022-11-18T11:19:52;5.60;;;1.80;;
11964;SDS011;6042;41.326;19.826;2022-11-18T11:22:27;6.47;;;1.80;;
11964;SDS011;6042;41.326;19.826;2022-11-18T11:24:56;5.53;;;2.03;;
11964;SDS011;6042;41.326;19.826;2022-11-18T11:30:41;11.43;;;2.20;;
11964;SDS011;6042;41.326;19.826;2022-11-18T11:33:17;4.77;;;1.80;;
11964;SDS011;6042;41.326;19.826;2022-11-18T11:36:06;4.87;;;1.67;;
11964;SDS011;6042;41.326;19.826;2022-11-18T11:38:46;4.10;;;1.50;;
11964;SDS011;6042;41.326;19.826;2022-11-18T11:41:34;3.43;;;2.10;;
11964;SDS011;6042;41.326;19.826;2022-11-18T11:44:19;4.00;;;1.53;;
11964;SDS011;6042;41.326;19.826;2022-11-18T11:47:01;4.27;;;1.90;;
11964;SDS011;6042;41.326;19.826;2022-11-18T11:49:59;4.67;;;2.20;;
11964;SDS011;6042;41.326;19.826;2022-11-18T11:52:33;11.23;;;2.90;;
11964;SDS011;6042;41.326;19.826;2022-11-18T11:55:15;5.03;;;1.87;;
11964;SDS011;6042;41.326;19.826;2022-11-18T11:57:54;9.60;;;1.87;;
11964;SDS011;6042;41.326;19.826;2022-11-18T12:00:31;7.37;;;2.60;;
11964;SDS011;6042;41.326;19.826;2022-11-18T12:03:11;3.10;;;2.10;;
11964;SDS011;6042;41.326;19.826;2022-11-18T12:05:48;6.67;;;2.30;;
11964;SDS011;6042;41.326;19.826;2022-11-18T12:08:19;6.70;;;2.30;;
11964;SDS011;6042;41.326;19.826;2022-11-18T12:10:50;5.40;;;2.00;;
11964;SDS011;6042;41.326;19.826;2022-11-18T12:13:31;4.43;;;1.83;;
11964;SDS011;6042;41.326;19.826;2022-11-18T12:16:17;3.67;;;1.70;;
11964;SDS011;6042;41.326;19.826;2022-11-18T12:18:52;5.00;;;2.00;;
11964;SDS011;6042;41.326;19.826;2022-11-18T12:24:25;4.70;;;1.70;;
11964;SDS011;6042;41.326;19.826;2022-11-18T12:26:59;7.50;;;2.10;;
11964;SDS011;6042;41.326;19.826;2022-11-18T12:29:32;2.77;;;1.90;;
11964;SDS011;6042;41.326;19.826;2022-11-18T12:34:55;4.23;;;2.20;;
11964;SDS011;6042;41.326;19.826;2022-11-18T12:37:37;6.03;;;2.97;;
11964;SDS011;6042;41.326;19.826;2022-11-18T12:40:34;2.63;;;2.00;;
11964;SDS011;6042;41.326;19.826;2022-11-18T12:52:49;5.47;;;2.83;;
11964;SDS011;6042;41.326;19.826;2022-11-18T12:55:21;5.60;;;2.67;;
11964;SDS011;6042;41.326;19.826;2022-11-18T12:57:55;4.37;;;3.00;;
11964;SDS011;6042;41.326;19.826;2022-11-18T13:00:28;8.73;;;5.13;;
11964;SDS011;6042;41.326;19.826;2022-11-18T13:02:59;5.13;;;3.43;;
11964;SDS011;6042;41.326;19.826;2022-11-18T13:05:29;5.60;;;4.40;;
11964;SDS011;6042;41.326;19.826;2022-11-18T13:08:01;4.27;;;3.30;;
11964;SDS011;6042;41.326;19.826;2022-11-18T13:10:45;6.53;;;3.67;;
11964;SDS011;6042;41.326;19.826;2022-11-18T13:13:27;11.37;;;3.87;;
11964;SDS011;6042;41.326;19.826;2022-11-18T13:16:01;7.07;;;2.87;;
11964;SDS011;6042;41.326;19.826;2022-11-18T13:19:03;4.40;;;2.97;;
11964;SDS011;6042;41.326;19.826;2022-11-18T13:21:32;5.67;;;3.47;;
11964;SDS011;6042;41.326;19.826;2022-11-18T13:24:20;6.30;;;3.97;;
11964;SDS011;6042;41.326;19.826;2022-11-18T13:26:52;6.10;;;4.23;;
11964;SDS011;6042;41.326;19.826;2022-11-18T13:29:27;5.73;;;3.83;;
11964;SDS011;6042;41.326;19.826;2022-11-18T13:32:15;6.40;;;3.47;;
11964;SDS011;6042;41.326;19.826;2022-11-18T13:34:50;7.00;;;4.40;;
11964;SDS011;6042;41.326;19.826;2022-11-18T13:37:21;8.20;;;4.17;;
11964;SDS011;6042;41.326;19.826;2022-11-18T13:39:51;4.37;;;3.67;;
11964;SDS011;6042;41.326;19.826;2022-11-18T13:42:21;5.30;;;3.60;;
11964;SDS011;6042;41.326;19.826;2022-11-18T13:44:52;4.47;;;2.70;;
11964;SDS011;6042;41.326;19.826;2022-11-18T13:47:25;5.87;;;3.10;;
11964;SDS011;6042;41.326;19.826;2022-11-18T13:50:03;4.13;;;2.57;;
11964;SDS011;6042;41.326;19.826;2022-11-18T13:52:40;4.43;;;2.40;;
11964;SDS011;6042;41.326;19.826;2022-11-18T13:55:14;6.07;;;3.13;;
11964;SDS011;6042;41.326;19.826;2022-11-18T13:57:47;5.73;;;2.63;;
11964;SDS011;6042;41.326;19.826;2022-11-18T14:00:22;4.20;;;2.87;;
11964;SDS011;6042;41.326;19.826;2022-11-18T14:02:54;2.97;;;2.50;;
11964;SDS011;6042;41.326;19.826;2022-11-18T14:05:25;3.60;;;2.50;;
11964;SDS011;6042;41.326;19.826;2022-11-18T14:07:55;9.00;;;3.53;;
11964;SDS011;6042;41.326;19.826;2022-11-18T14:10:28;6.17;;;2.60;;
11964;SDS011;6042;41.326;19.826;2022-11-18T14:13:12;4.23;;;2.80;;
11964;SDS011;6042;41.326;19.826;2022-11-18T14:15:54;5.50;;;2.80;;
11964;SDS011;6042;41.326;19.826;2022-11-18T14:18:29;7.93;;;2.87;;
11964;SDS011;6042;41.326;19.826;2022-11-18T14:21:00;6.80;;;2.63;;
11964;SDS011;6042;41.326;19.826;2022-11-18T14:23:30;4.23;;;2.80;;
11964;SDS011;6042;41.326;19.826;2022-11-18T14:26:00;13.77;;;5.07;;
11964;SDS011;6042;41.326;19.826;2022-11-18T14:28:31;5.63;;;3.37;;
11964;SDS011;6042;41.326;19.826;2022-11-18T14:31:05;7.10;;;2.70;;
11964;SDS011;6042;41.326;19.826;2022-11-18T14:34:02;4.67;;;2.70;;
11964;SDS011;6042;41.326;19.826;2022-11-18T14:36:45;7.73;;;3.73;;
11964;SDS011;6042;41.326;19.826;2022-11-18T14:39:18;5.17;;;3.10;;
11964;SDS011;6042;41.326;19.826;2022-11-18T14:41:53;6.67;;;2.77;;
11964;SDS011;6042;41.326;19.826;2022-11-18T14:44:23;5.50;;;2.43;;
11964;SDS011;6042;41.326;19.826;2022-11-18T14:46:56;4.47;;;2.80;;
11964;SDS011;6042;41.326;19.826;2022-11-18T14:49:26;6.47;;;3.00;;
11964;SDS011;6042;41.326;19.826;2022-11-18T14:51:57;9.07;;;2.80;;
11964;SDS011;6042;41.326;19.826;2022-11-18T14:54:28;7.67;;;3.67;;
11964;SDS011;6042;41.326;19.826;2022-11-18T14:56:59;4.87;;;2.57;;
11964;SDS011;6042;41.326;19.826;2022-11-18T14:59:29;5.37;;;3.00;;
11964;SDS011;6042;41.326;19.826;2022-11-18T15:01:59;7.17;;;3.50;;
11964;SDS011;6042;41.326;19.826;2022-11-18T15:04:28;6.20;;;2.97;;
11964;SDS011;6042;41.326;19.826;2022-11-18T15:06:57;5.23;;;2.90;;
11964;SDS011;6042;41.326;19.826;2022-11-18T15:09:26;5.47;;;3.27;;
11964;SDS011;6042;41.326;19.826;2022-11-18T15:11:54;7.97;;;3.30;;
11964;SDS011;6042;41.326;19.826;2022-11-18T15:14:23;7.60;;;3.37;;
11964;SDS011;6042;41.326;19.826;2022-11-18T15:16:51;5.70;;;3.20;;
11964;SDS011;6042;41.326;19.826;2022-11-18T15:19:23;4.37;;;3.10;;
11964;SDS011;6042;41.326;19.826;2022-11-18T15:21:51;4.40;;;3.20;;
11964;SDS011;6042;41.326;19.826;2022-11-18T15:24:20;5.47;;;2.73;;
11964;SDS011;6042;41.326;19.826;2022-11-18T15:26:48;7.43;;;4.00;;
11964;SDS011;6042;41.326;19.826;2022-11-18T15:29:18;6.37;;;3.33;;
11964;SDS011;6042;41.326;19.826;2022-11-18T15:31:48;8.10;;;3.83;;
11964;SDS011;6042;41.326;19.826;2022-11-18T15:34:18;7.67;;;3.60;;
11964;SDS011;6042;41.326;19.826;2022-11-18T15:36:49;6.10;;;3.87;;
11964;SDS011;6042;41.326;19.826;2022-11-18T15:39:18;5.33;;;2.93;;
11964;SDS011;6042;41.326;19.826;2022-11-18T15:41:48;7.97;;;3.03;;
11964;SDS011;6042;41.326;19.826;2022-11-18T15:44:17;7.53;;;3.23;;